createdAt,value
2022-10-13T00:04:11.195Z,3.50
2022-10-13T00:09:12.995Z,3.50
2022-10-13T00:14:14.805Z,3.40
2022-10-13T00:19:16.606Z,3.40
2022-10-13T00:24:18.415Z,3.30
2022-10-13T00:29:20.219Z,3.30
2022-10-13T00:34:22.073Z,3.30
2022-10-13T00:39:23.851Z,3.40
2022-10-13T00:45:01.611Z,3.30
2022-10-13T00:50:04.897Z,3.30
2022-10-13T00:55:09.193Z,3.30
2022-10-13T01:00:11.727Z,3.20
2022-10-13T01:05:14.035Z,3.20
2022-10-13T01:10:41.964Z,3.30
2022-10-13T01:16:21.383Z,3.30
2022-10-13T01:21:33.158Z,3.10
2022-10-13T01:26:52.494Z,3.10
2022-10-13T01:32:19.217Z,3.00
2022-10-13T01:37:30.653Z,3.00
2022-10-13T01:42:53.737Z,3.00
2022-10-13T01:47:57.432Z,2.90
2022-10-13T01:53:03.104Z,3.00
2022-10-13T01:58:04.913Z,3.00
2022-10-13T02:03:13.989Z,3.00
2022-10-13T02:08:28.235Z,2.90
2022-10-13T02:13:34.549Z,2.80
2022-10-13T02:18:36.980Z,2.90
2022-10-13T02:23:43.339Z,2.90
2022-10-13T02:28:45.423Z,2.90
2022-10-13T02:33:47.251Z,3.00
2022-10-13T02:38:49.065Z,3.10
2022-10-13T02:43:50.877Z,2.90
2022-10-13T02:48:52.847Z,2.80
2022-10-13T02:53:54.675Z,2.90
2022-10-13T02:58:56.463Z,2.90
2022-10-13T03:03:58.320Z,2.80
2022-10-13T03:09:00.126Z,2.70
2022-10-13T03:14:01.930Z,2.70
2022-10-13T03:19:03.880Z,2.60
2022-10-13T03:24:06.459Z,2.50
2022-10-13T03:29:11.717Z,2.60
2022-10-13T03:34:16.450Z,2.70
2022-10-13T03:39:18.268Z,2.90
2022-10-13T03:44:20.360Z,2.90
2022-10-13T03:49:22.137Z,2.90
2022-10-13T03:54:24.715Z,2.90
2022-10-13T03:59:34.223Z,2.90
2022-10-13T04:04:39.169Z,2.80
2022-10-13T04:09:41.055Z,2.90
2022-10-13T04:14:42.943Z,3.00
2022-10-13T04:19:44.920Z,3.00
2022-10-13T04:24:46.804Z,3.00
2022-10-13T04:29:48.672Z,2.70
2022-10-13T04:34:50.590Z,2.60
2022-10-13T04:39:52.381Z,2.60
2022-10-13T04:44:54.240Z,2.50
2022-10-13T04:49:56.273Z,2.50
2022-10-13T04:54:58.138Z,2.50
2022-10-13T05:00:00.273Z,2.50
2022-10-13T05:05:06.603Z,2.50
2022-10-13T05:10:08.939Z,2.60
2022-10-13T05:15:10.971Z,2.40
2022-10-13T05:20:12.902Z,2.60
2022-10-13T05:25:14.819Z,2.60
2022-10-13T05:30:16.742Z,2.50
2022-10-13T05:35:18.584Z,2.50
2022-10-13T05:40:21.426Z,2.60
2022-10-13T05:45:24.219Z,2.60
2022-10-13T05:50:26.088Z,2.70
2022-10-13T05:55:27.998Z,2.90
2022-10-13T06:00:30.039Z,3.10
2022-10-13T06:05:32.851Z,3.20
2022-10-13T06:10:34.688Z,3.40
2022-10-13T06:15:36.592Z,3.60
2022-10-13T06:20:38.547Z,3.80
2022-10-13T06:25:50.855Z,4.10
2022-10-13T06:30:56.984Z,4.30
2022-10-13T06:36:03.367Z,4.40
2022-10-13T06:41:06.319Z,4.70
2022-10-13T06:46:12.364Z,5.00
2022-10-13T06:51:14.151Z,5.30
2022-10-13T06:56:16.000Z,5.50
2022-10-13T07:01:17.987Z,5.70
2022-10-13T07:06:19.891Z,5.90
2022-10-13T07:11:21.679Z,6.10
2022-10-13T07:16:26.508Z,6.20
2022-10-13T07:21:28.291Z,6.50
2022-10-13T07:26:32.369Z,6.80
2022-10-13T07:31:34.319Z,7.20
2022-10-13T07:36:37.210Z,7.40
2022-10-13T07:41:39.147Z,7.50
2022-10-13T07:46:40.947Z,7.10
2022-10-13T07:51:44.384Z,7.20
2022-10-13T07:56:46.285Z,7.30
2022-10-13T08:01:48.522Z,7.30
2022-10-13T08:06:50.324Z,7.50
2022-10-13T08:11:53.968Z,7.50
2022-10-13T08:17:01.359Z,7.80
2022-10-13T08:22:06.527Z,7.80
2022-10-13T08:27:22.842Z,8.10
2022-10-13T08:32:24.618Z,8.30
2022-10-13T08:37:26.410Z,8.50
2022-10-13T08:42:28.263Z,8.80
2022-10-13T08:47:48.969Z,9.10
2022-10-13T08:53:07.456Z,9.40
2022-10-13T08:58:26.982Z,9.90
2022-10-13T09:03:30.403Z,9.90
2022-10-13T09:08:41.029Z,10.00
2022-10-13T09:13:42.846Z,10.20
2022-10-13T09:18:44.968Z,10.00
2022-10-13T09:23:52.243Z,10.60
2022-10-13T09:28:54.343Z,10.40
2022-10-13T09:34:13.760Z,10.60
2022-10-13T09:39:17.145Z,10.60
2022-10-13T09:44:31.812Z,10.80
2022-10-13T09:49:36.137Z,12.50
2022-10-13T09:54:40.344Z,12.90
2022-10-13T09:59:50.341Z,13.00
2022-10-13T10:04:55.040Z,12.40
2022-10-13T10:10:29.524Z,12.10
2022-10-13T10:16:09.349Z,12.10
2022-10-13T10:21:47.160Z,12.20
2022-10-13T10:26:58.842Z,12.30
2022-10-13T10:32:32.638Z,12.50
2022-10-13T10:38:13.041Z,12.90
2022-10-13T10:43:33.017Z,12.90
2022-10-13T10:48:39.547Z,13.00
2022-10-13T10:54:13.871Z,13.00
2022-10-13T11:00:04.980Z,13.30
2022-10-13T11:05:06.948Z,13.30
2022-10-13T11:10:21.319Z,13.40
2022-10-13T11:15:31.122Z,13.50
2022-10-13T11:20:36.164Z,13.40
2022-10-13T11:25:41.099Z,13.60
2022-10-13T11:30:47.499Z,13.70
2022-10-13T11:35:49.496Z,13.90
2022-10-13T11:41:07.538Z,14.30
2022-10-13T11:46:23.858Z,14.50
2022-10-13T11:52:09.816Z,14.50
2022-10-13T11:57:21.160Z,14.50
2022-10-13T12:02:25.934Z,14.80
2022-10-13T12:07:36.102Z,15.00
2022-10-13T12:12:37.979Z,15.30
2022-10-13T12:17:44.480Z,16.10
2022-10-13T12:22:51.392Z,15.80
2022-10-13T12:27:55.827Z,15.70
2022-10-13T12:33:00.978Z,15.60
2022-10-13T12:38:06.653Z,15.50
2022-10-13T12:43:18.120Z,15.60
2022-10-13T12:48:34.550Z,15.40
2022-10-13T12:53:38.157Z,15.20
2022-10-13T12:58:43.573Z,15.10
2022-10-13T13:03:45.460Z,15.10
2022-10-13T13:08:47.272Z,15.10
2022-10-13T13:13:49.510Z,15.20
2022-10-13T13:18:51.786Z,15.30
2022-10-13T13:23:54.755Z,15.30
2022-10-13T13:28:56.961Z,15.30
2022-10-13T13:33:58.753Z,15.70
2022-10-13T13:39:00.622Z,15.50
2022-10-13T13:44:02.544Z,15.60
2022-10-13T13:49:04.625Z,15.30
2022-10-13T13:54:06.479Z,15.10
2022-10-13T13:59:09.955Z,15.00
2022-10-13T14:04:15.069Z,14.70
2022-10-13T14:09:21.489Z,14.60
2022-10-13T14:14:26.313Z,14.50
2022-10-13T14:19:33.636Z,14.50
2022-10-13T14:24:38.587Z,14.30
2022-10-13T14:29:44.433Z,14.30
2022-10-13T14:34:47.855Z,14.10
2022-10-13T14:39:51.271Z,14.00
2022-10-13T14:44:55.673Z,14.00
2022-10-13T14:50:02.485Z,14.00
2022-10-13T14:55:25.742Z,14.00
2022-10-13T15:00:31.654Z,13.80
2022-10-13T15:05:37.240Z,13.70
2022-10-13T15:10:44.668Z,13.40
2022-10-13T15:15:49.609Z,13.20
2022-10-13T15:20:57.116Z,12.90
2022-10-13T15:26:04.829Z,12.70
2022-10-13T15:31:08.488Z,13.00
2022-10-13T15:36:12.593Z,13.00
2022-10-13T15:41:17.380Z,12.70
2022-10-13T15:46:25.092Z,12.20
2022-10-13T15:51:29.612Z,12.10
2022-10-13T15:56:33.572Z,11.90
2022-10-13T16:01:37.827Z,11.30
2022-10-13T16:06:43.598Z,11.00
2022-10-13T16:11:47.217Z,10.70
2022-10-13T16:16:51.400Z,10.60
2022-10-13T16:22:01.095Z,10.30
2022-10-13T16:27:09.015Z,10.20
2022-10-13T16:32:13.449Z,10.40
2022-10-13T16:37:20.255Z,10.20
2022-10-13T16:42:24.017Z,9.80
2022-10-13T16:47:27.567Z,9.70
2022-10-13T16:52:30.878Z,9.70
2022-10-13T16:57:34.389Z,9.50
2022-10-13T17:02:37.793Z,9.40
2022-10-13T17:07:44.414Z,9.30
2022-10-13T17:12:49.055Z,9.20
2022-10-13T17:17:52.861Z,9.10
2022-10-13T17:22:59.508Z,8.90
2022-10-13T17:28:03.346Z,8.80
2022-10-13T17:33:07.240Z,8.50
2022-10-13T17:38:11.031Z,8.60
2022-10-13T17:43:18.258Z,8.60
2022-10-13T17:48:26.762Z,8.40
2022-10-13T17:53:35.899Z,8.30
2022-10-13T17:58:40.798Z,8.40
2022-10-13T18:04:05.240Z,8.40
2022-10-13T18:09:15.111Z,8.20
2022-10-13T18:14:22.619Z,8.20
2022-10-13T18:19:26.373Z,8.00
2022-10-13T18:24:29.308Z,7.90
2022-10-13T18:29:32.799Z,7.90
2022-10-13T18:34:37.114Z,7.80
2022-10-13T18:39:41.535Z,7.70
2022-10-13T18:44:45.764Z,7.60
2022-10-13T18:49:49.036Z,7.60
2022-10-13T19:00:18.609Z,7.40
2022-10-13T19:05:22.859Z,7.50
2022-10-13T19:10:30.415Z,7.50
2022-10-13T19:15:42.998Z,7.40
2022-10-13T19:20:46.615Z,7.40
2022-10-13T19:25:52.969Z,7.40
2022-10-13T19:30:58.093Z,7.20
2022-10-13T19:36:01.151Z,7.30
2022-10-13T19:41:09.272Z,7.20
2022-10-13T19:46:12.584Z,7.10
2022-10-13T19:51:16.002Z,7.00
2022-10-13T19:56:20.111Z,7.00
2022-10-13T20:01:24.030Z,7.00
2022-10-13T20:06:27.359Z,6.70
2022-10-13T20:11:30.778Z,6.80
2022-10-13T20:17:01.721Z,6.70
2022-10-13T20:22:04.517Z,6.70
2022-10-13T20:27:07.302Z,6.60
2022-10-13T20:32:10.934Z,6.60
2022-10-13T20:37:14.320Z,6.60
2022-10-13T20:42:17.585Z,6.40
2022-10-13T20:47:21.350Z,6.50
2022-10-13T20:52:26.834Z,6.40
2022-10-13T20:57:29.425Z,6.30
2022-10-13T21:02:32.666Z,6.30
2022-10-13T21:07:35.529Z,6.30
2022-10-13T21:12:41.603Z,6.30
2022-10-13T21:17:47.992Z,6.40
2022-10-13T21:23:50.668Z,6.40
2022-10-13T21:28:55.594Z,6.40
2022-10-13T21:34:01.510Z,6.30
2022-10-13T21:39:06.227Z,6.40
2022-10-13T21:44:12.147Z,6.30
2022-10-13T21:49:13.930Z,6.20
2022-10-13T21:54:15.760Z,6.20
2022-10-13T21:59:17.567Z,6.20
2022-10-13T22:04:19.377Z,6.20
2022-10-13T22:09:21.210Z,6.30
2022-10-13T22:14:26.803Z,6.40
2022-10-13T22:19:28.610Z,6.50
2022-10-13T22:24:30.426Z,6.60
2022-10-13T22:29:32.224Z,6.60
2022-10-13T22:34:34.025Z,6.70
2022-10-13T22:39:35.815Z,6.80
2022-10-13T22:44:43.246Z,6.80
2022-10-13T22:49:45.048Z,6.70
2022-10-13T22:54:47.215Z,6.60
2022-10-13T22:59:49.015Z,6.70
2022-10-13T23:04:50.830Z,6.70
2022-10-13T23:09:52.931Z,6.60
2022-10-13T23:14:54.709Z,6.40
2022-10-13T23:19:56.493Z,6.20
2022-10-13T23:24:58.308Z,6.10
2022-10-13T23:30:00.071Z,6.20
2022-10-13T23:35:01.908Z,6.30
2022-10-13T23:40:07.805Z,6.30
2022-10-13T23:45:10.145Z,6.40
2022-10-13T23:50:11.964Z,6.30
2022-10-13T23:55:14.098Z,6.30
